LFBZ/BIQ METAR and TAF weather

Enter ICAO airport designator
Station Type Date Time Source
LFBZ METAR 2020/04/01 23:00 UTC NOAA

LFBZ 012300Z AUTO VRB02KT 9999 BKN064 BKN094 11/10 Q1013


Station Type Date Time Source
LFBZ Decoded METAR 2020/04/01 23:00 UTC NOAA

Biarritz, France (LFBZ) 43-28N 001-32W 71M
Apr 01, 2020 - 07:00 PM EDT / 2020.04.01 2300 UTC
Wind: Variable at 2 MPH (2 KT):0
Visibility: greater than 7 mile(s):0
Sky conditions: mostly cloudy
Temperature: 51 F (11 C)
Dew Point: 50 F (10 C)
Relative Humidity: 93%
Pressure (altimeter): 29.91 in. Hg (1013 hPa)
ob: LFBZ 012300Z AUTO VRB02KT 9999 BKN064 BKN094 11/10 Q1013
cycle: 23

Station Type Date Time Source
LFBZ TAF 2020/03/27 17:54 UTC NOAA

TAF LFBZ 271100Z 2717/2812 CNL

Example: see airport list